sensor_id;sensor_type;location;lat;lon;timestamp;P1;durP1;ratioP1;P2;durP2;ratioP2
12332;SDS011;6232;48.094;11.288;2023-09-19T00:00:50;2.10;;;2.00;;
12332;SDS011;6232;48.094;11.288;2023-09-19T00:03:36;2.17;;;1.80;;
12332;SDS011;6232;48.094;11.288;2023-09-19T00:06:22;1.60;;;1.50;;
12332;SDS011;6232;48.094;11.288;2023-09-19T00:09:11;2.33;;;1.97;;
12332;SDS011;6232;48.094;11.288;2023-09-19T00:11:57;1.70;;;1.60;;
12332;SDS011;6232;48.094;11.288;2023-09-19T00:14:42;2.50;;;1.77;;
12332;SDS011;6232;48.094;11.288;2023-09-19T00:17:28;2.77;;;1.60;;
12332;SDS011;6232;48.094;11.288;2023-09-19T00:20:16;2.03;;;1.50;;
12332;SDS011;6232;48.094;11.288;2023-09-19T00:23:03;1.87;;;1.70;;
12332;SDS011;6232;48.094;11.288;2023-09-19T00:25:50;2.90;;;1.80;;
12332;SDS011;6232;48.094;11.288;2023-09-19T00:28:36;2.40;;;1.27;;
12332;SDS011;6232;48.094;11.288;2023-09-19T00:31:22;3.20;;;1.77;;
12332;SDS011;6232;48.094;11.288;2023-09-19T00:34:10;4.20;;;1.83;;
12332;SDS011;6232;48.094;11.288;2023-09-19T00:36:56;3.90;;;1.83;;
12332;SDS011;6232;48.094;11.288;2023-09-19T00:39:42;2.90;;;1.70;;
12332;SDS011;6232;48.094;11.288;2023-09-19T00:42:27;4.07;;;1.90;;
12332;SDS011;6232;48.094;11.288;2023-09-19T00:45:14;3.10;;;1.87;;
12332;SDS011;6232;48.094;11.288;2023-09-19T00:47:59;1.57;;;1.43;;
12332;SDS011;6232;48.094;11.288;2023-09-19T00:50:49;1.67;;;1.57;;
12332;SDS011;6232;48.094;11.288;2023-09-19T00:53:35;4.50;;;1.40;;
12332;SDS011;6232;48.094;11.288;2023-09-19T00:56:21;3.83;;;1.53;;
12332;SDS011;6232;48.094;11.288;2023-09-19T00:59:06;2.93;;;1.90;;
12332;SDS011;6232;48.094;11.288;2023-09-19T01:01:52;3.10;;;1.70;;
12332;SDS011;6232;48.094;11.288;2023-09-19T01:04:40;12.70;;;2.00;;
12332;SDS011;6232;48.094;11.288;2023-09-19T01:07:26;1.97;;;1.60;;
12332;SDS011;6232;48.094;11.288;2023-09-19T01:10:12;1.77;;;1.67;;
12332;SDS011;6232;48.094;11.288;2023-09-19T01:13:13;1.73;;;1.63;;
12332;SDS011;6232;48.094;11.288;2023-09-19T01:16:21;1.33;;;1.23;;
12332;SDS011;6232;48.094;11.288;2023-09-19T01:30:56;7.33;;;1.93;;
12332;SDS011;6232;48.094;11.288;2023-09-19T01:33:55;1.77;;;1.60;;
12332;SDS011;6232;48.094;11.288;2023-09-19T01:36:44;1.50;;;1.40;;
12332;SDS011;6232;48.094;11.288;2023-09-19T01:39:30;2.00;;;1.80;;
12332;SDS011;6232;48.094;11.288;2023-09-19T01:48:35;2.10;;;1.70;;
12332;SDS011;6232;48.094;11.288;2023-09-19T01:51:20;1.97;;;1.50;;
12332;SDS011;6232;48.094;11.288;2023-09-19T01:54:10;2.10;;;1.57;;
12332;SDS011;6232;48.094;11.288;2023-09-19T01:59:43;1.40;;;1.30;;
12332;SDS011;6232;48.094;11.288;2023-09-19T02:02:30;2.33;;;1.53;;
12332;SDS011;6232;48.094;11.288;2023-09-19T02:05:23;2.23;;;1.87;;
12332;SDS011;6232;48.094;11.288;2023-09-19T02:08:15;4.43;;;1.77;;
12332;SDS011;6232;48.094;11.288;2023-09-19T02:11:01;2.70;;;1.70;;
12332;SDS011;6232;48.094;11.288;2023-09-19T02:13:47;1.70;;;1.60;;
12332;SDS011;6232;48.094;11.288;2023-09-19T02:16:33;3.07;;;1.97;;
12332;SDS011;6232;48.094;11.288;2023-09-19T02:19:18;5.27;;;2.00;;
12332;SDS011;6232;48.094;11.288;2023-09-19T02:22:06;2.30;;;1.80;;
12332;SDS011;6232;48.094;11.288;2023-09-19T02:24:52;3.33;;;2.00;;
12332;SDS011;6232;48.094;11.288;2023-09-19T02:27:39;1.97;;;1.60;;
12332;SDS011;6232;48.094;11.288;2023-09-19T02:30:25;2.33;;;1.57;;
12332;SDS011;6232;48.094;11.288;2023-09-19T02:33:14;1.70;;;1.60;;
12332;SDS011;6232;48.094;11.288;2023-09-19T02:36:00;2.00;;;1.70;;
12332;SDS011;6232;48.094;11.288;2023-09-19T02:38:46;2.93;;;1.70;;
12332;SDS011;6232;48.094;11.288;2023-09-19T02:41:31;1.70;;;1.60;;
12332;SDS011;6232;48.094;11.288;2023-09-19T02:44:18;1.97;;;1.77;;
12332;SDS011;6232;48.094;11.288;2023-09-19T02:47:05;2.10;;;1.90;;
12332;SDS011;6232;48.094;11.288;2023-09-19T02:49:50;4.63;;;1.60;;
12332;SDS011;6232;48.094;11.288;2023-09-19T02:52:36;2.53;;;2.33;;
12332;SDS011;6232;48.094;11.288;2023-09-19T02:55:22;4.80;;;1.83;;
12332;SDS011;6232;48.094;11.288;2023-09-19T02:58:08;4.23;;;2.27;;
12332;SDS011;6232;48.094;11.288;2023-09-19T03:00:53;3.53;;;1.87;;
12332;SDS011;6232;48.094;11.288;2023-09-19T03:03:40;2.27;;;1.53;;
12332;SDS011;6232;48.094;11.288;2023-09-19T03:06:26;2.10;;;1.90;;
12332;SDS011;6232;48.094;11.288;2023-09-19T03:09:14;2.50;;;1.63;;
12332;SDS011;6232;48.094;11.288;2023-09-19T03:12:01;1.90;;;1.57;;
12332;SDS011;6232;48.094;11.288;2023-09-19T03:14:47;2.73;;;1.90;;
12332;SDS011;6232;48.094;11.288;2023-09-19T03:17:33;3.37;;;1.70;;
12332;SDS011;6232;48.094;11.288;2023-09-19T03:20:19;3.40;;;1.70;;
12332;SDS011;6232;48.094;11.288;2023-09-19T03:23:06;1.80;;;1.70;;
12332;SDS011;6232;48.094;11.288;2023-09-19T03:25:55;3.27;;;2.00;;
12332;SDS011;6232;48.094;11.288;2023-09-19T03:28:41;1.87;;;1.60;;
12332;SDS011;6232;48.094;11.288;2023-09-19T03:31:27;2.20;;;2.00;;
12332;SDS011;6232;48.094;11.288;2023-09-19T03:34:13;3.23;;;1.57;;
12332;SDS011;6232;48.094;11.288;2023-09-19T03:36:59;5.10;;;2.00;;
12332;SDS011;6232;48.094;11.288;2023-09-19T03:39:45;2.40;;;1.70;;
12332;SDS011;6232;48.094;11.288;2023-09-19T03:42:31;3.27;;;2.00;;
12332;SDS011;6232;48.094;11.288;2023-09-19T03:45:16;3.57;;;1.70;;
12332;SDS011;6232;48.094;11.288;2023-09-19T03:48:12;3.10;;;1.90;;
12332;SDS011;6232;48.094;11.288;2023-09-19T03:50:58;2.50;;;1.97;;
12332;SDS011;6232;48.094;11.288;2023-09-19T03:53:44;2.23;;;1.70;;
12332;SDS011;6232;48.094;11.288;2023-09-19T03:56:29;4.63;;;1.67;;
12332;SDS011;6232;48.094;11.288;2023-09-19T03:59:19;2.00;;;1.80;;
12332;SDS011;6232;48.094;11.288;2023-09-19T04:02:05;2.07;;;1.60;;
12332;SDS011;6232;48.094;11.288;2023-09-19T04:04:57;1.60;;;1.50;;
12332;SDS011;6232;48.094;11.288;2023-09-19T04:07:44;3.00;;;1.80;;
12332;SDS011;6232;48.094;11.288;2023-09-19T04:10:31;1.50;;;1.40;;
12332;SDS011;6232;48.094;11.288;2023-09-19T04:13:16;2.77;;;1.60;;
12332;SDS011;6232;48.094;11.288;2023-09-19T04:16:02;2.23;;;1.80;;
12332;SDS011;6232;48.094;11.288;2023-09-19T04:18:49;1.80;;;1.70;;
12332;SDS011;6232;48.094;11.288;2023-09-19T04:21:34;2.10;;;1.90;;
12332;SDS011;6232;48.094;11.288;2023-09-19T04:24:20;3.00;;;1.57;;
12332;SDS011;6232;48.094;11.288;2023-09-19T04:27:06;2.80;;;1.80;;
12332;SDS011;6232;48.094;11.288;2023-09-19T04:29:52;1.93;;;1.57;;
12332;SDS011;6232;48.094;11.288;2023-09-19T04:32:38;2.37;;;2.03;;
12332;SDS011;6232;48.094;11.288;2023-09-19T04:35:25;4.30;;;2.10;;
12332;SDS011;6232;48.094;11.288;2023-09-19T04:38:12;1.80;;;1.47;;
12332;SDS011;6232;48.094;11.288;2023-09-19T04:40:57;2.17;;;1.90;;
12332;SDS011;6232;48.094;11.288;2023-09-19T04:43:46;1.90;;;1.80;;
12332;SDS011;6232;48.094;11.288;2023-09-19T04:46:45;2.50;;;2.07;;
12332;SDS011;6232;48.094;11.288;2023-09-19T04:49:34;3.37;;;1.77;;
12332;SDS011;6232;48.094;11.288;2023-09-19T04:52:31;1.70;;;1.57;;
12332;SDS011;6232;48.094;11.288;2023-09-19T04:55:17;7.80;;;1.80;;
12332;SDS011;6232;48.094;11.288;2023-09-19T04:58:04;1.57;;;1.47;;
12332;SDS011;6232;48.094;11.288;2023-09-19T05:00:53;3.90;;;1.97;;
12332;SDS011;6232;48.094;11.288;2023-09-19T05:03:39;2.00;;;1.90;;
12332;SDS011;6232;48.094;11.288;2023-09-19T05:06:24;2.27;;;1.77;;
12332;SDS011;6232;48.094;11.288;2023-09-19T05:09:11;2.67;;;2.00;;
12332;SDS011;6232;48.094;11.288;2023-09-19T05:11:57;1.87;;;1.50;;
12332;SDS011;6232;48.094;11.288;2023-09-19T05:14:43;2.00;;;1.80;;
12332;SDS011;6232;48.094;11.288;2023-09-19T05:17:29;4.17;;;2.13;;
12332;SDS011;6232;48.094;11.288;2023-09-19T05:20:15;2.70;;;1.70;;
12332;SDS011;6232;48.094;11.288;2023-09-19T05:23:05;2.03;;;1.57;;
12332;SDS011;6232;48.094;11.288;2023-09-19T05:25:56;3.03;;;1.60;;
12332;SDS011;6232;48.094;11.288;2023-09-19T05:28:43;4.37;;;1.60;;
12332;SDS011;6232;48.094;11.288;2023-09-19T05:31:29;3.17;;;1.73;;
12332;SDS011;6232;48.094;11.288;2023-09-19T05:34:15;2.27;;;1.50;;
12332;SDS011;6232;48.094;11.288;2023-09-19T05:37:02;3.37;;;1.70;;
12332;SDS011;6232;48.094;11.288;2023-09-19T05:39:53;2.20;;;1.87;;
12332;SDS011;6232;48.094;11.288;2023-09-19T05:42:39;2.13;;;1.63;;
12332;SDS011;6232;48.094;11.288;2023-09-19T05:45:26;1.63;;;1.50;;
12332;SDS011;6232;48.094;11.288;2023-09-19T05:48:13;2.40;;;1.50;;
12332;SDS011;6232;48.094;11.288;2023-09-19T05:50:59;2.17;;;1.53;;
12332;SDS011;6232;48.094;11.288;2023-09-19T05:53:46;1.77;;;1.50;;
12332;SDS011;6232;48.094;11.288;2023-09-19T05:56:33;3.73;;;1.60;;
12332;SDS011;6232;48.094;11.288;2023-09-19T05:59:19;2.70;;;1.40;;
12332;SDS011;6232;48.094;11.288;2023-09-19T06:02:05;4.37;;;1.43;;
12332;SDS011;6232;48.094;11.288;2023-09-19T06:04:51;1.63;;;1.53;;
12332;SDS011;6232;48.094;11.288;2023-09-19T06:07:38;2.23;;;2.03;;
12332;SDS011;6232;48.094;11.288;2023-09-19T06:10:24;3.47;;;1.60;;
12332;SDS011;6232;48.094;11.288;2023-09-19T06:13:10;2.40;;;1.87;;
12332;SDS011;6232;48.094;11.288;2023-09-19T06:15:56;2.00;;;1.57;;
12332;SDS011;6232;48.094;11.288;2023-09-19T06:18:42;1.73;;;1.57;;
12332;SDS011;6232;48.094;11.288;2023-09-19T06:21:27;2.03;;;1.50;;
12332;SDS011;6232;48.094;11.288;2023-09-19T06:24:13;1.57;;;1.47;;
12332;SDS011;6232;48.094;11.288;2023-09-19T06:26:58;2.30;;;1.20;;
12332;SDS011;6232;48.094;11.288;2023-09-19T06:29:46;3.30;;;2.03;;
12332;SDS011;6232;48.094;11.288;2023-09-19T06:32:32;1.60;;;1.50;;
12332;SDS011;6232;48.094;11.288;2023-09-19T06:35:17;1.63;;;1.53;;
12332;SDS011;6232;48.094;11.288;2023-09-19T06:38:03;2.60;;;1.77;;
12332;SDS011;6232;48.094;11.288;2023-09-19T06:40:51;2.37;;;1.30;;
12332;SDS011;6232;48.094;11.288;2023-09-19T06:43:38;1.87;;;1.70;;
12332;SDS011;6232;48.094;11.288;2023-09-19T06:46:24;1.80;;;1.60;;
12332;SDS011;6232;48.094;11.288;2023-09-19T06:49:10;1.50;;;1.40;;
12332;SDS011;6232;48.094;11.288;2023-09-19T06:51:56;2.00;;;1.40;;
12332;SDS011;6232;48.094;11.288;2023-09-19T06:54:42;1.60;;;1.30;;
12332;SDS011;6232;48.094;11.288;2023-09-19T06:57:28;2.50;;;1.93;;
12332;SDS011;6232;48.094;11.288;2023-09-19T07:00:14;3.60;;;1.73;;
12332;SDS011;6232;48.094;11.288;2023-09-19T07:03:09;1.53;;;1.43;;
12332;SDS011;6232;48.094;11.288;2023-09-19T07:06:01;1.83;;;1.60;;
12332;SDS011;6232;48.094;11.288;2023-09-19T07:08:49;2.17;;;1.60;;
12332;SDS011;6232;48.094;11.288;2023-09-19T07:11:35;2.77;;;1.90;;
12332;SDS011;6232;48.094;11.288;2023-09-19T07:14:22;2.50;;;1.80;;
12332;SDS011;6232;48.094;11.288;2023-09-19T07:17:08;1.63;;;1.53;;
12332;SDS011;6232;48.094;11.288;2023-09-19T07:19:54;1.90;;;1.40;;
12332;SDS011;6232;48.094;11.288;2023-09-19T07:22:39;1.43;;;1.33;;
12332;SDS011;6232;48.094;11.288;2023-09-19T07:25:25;2.93;;;1.90;;
12332;SDS011;6232;48.094;11.288;2023-09-19T07:28:11;1.80;;;1.57;;
12332;SDS011;6232;48.094;11.288;2023-09-19T07:30:56;2.60;;;1.87;;
12332;SDS011;6232;48.094;11.288;2023-09-19T07:33:42;3.40;;;1.80;;
12332;SDS011;6232;48.094;11.288;2023-09-19T07:36:28;1.47;;;1.30;;
12332;SDS011;6232;48.094;11.288;2023-09-19T07:39:14;1.60;;;1.33;;
12332;SDS011;6232;48.094;11.288;2023-09-19T07:42:00;2.00;;;1.77;;
12332;SDS011;6232;48.094;11.288;2023-09-19T07:44:46;3.07;;;1.70;;
12332;SDS011;6232;48.094;11.288;2023-09-19T07:47:35;4.03;;;1.80;;
12332;SDS011;6232;48.094;11.288;2023-09-19T07:50:21;1.30;;;1.20;;
12332;SDS011;6232;48.094;11.288;2023-09-19T07:53:07;1.53;;;1.43;;
12332;SDS011;6232;48.094;11.288;2023-09-19T07:55:52;2.27;;;1.43;;
12332;SDS011;6232;48.094;11.288;2023-09-19T07:58:40;2.03;;;1.30;;
12332;SDS011;6232;48.094;11.288;2023-09-19T08:01:29;1.23;;;1.13;;
12332;SDS011;6232;48.094;11.288;2023-09-19T08:04:14;1.20;;;1.10;;
12332;SDS011;6232;48.094;11.288;2023-09-19T08:07:00;1.80;;;1.40;;
12332;SDS011;6232;48.094;11.288;2023-09-19T08:09:48;1.50;;;1.40;;
12332;SDS011;6232;48.094;11.288;2023-09-19T08:12:34;1.80;;;1.70;;
12332;SDS011;6232;48.094;11.288;2023-09-19T08:15:21;5.57;;;1.30;;
12332;SDS011;6232;48.094;11.288;2023-09-19T08:18:06;1.40;;;1.30;;
12332;SDS011;6232;48.094;11.288;2023-09-19T08:20:55;1.77;;;1.30;;
12332;SDS011;6232;48.094;11.288;2023-09-19T08:23:44;1.50;;;1.40;;
12332;SDS011;6232;48.094;11.288;2023-09-19T08:26:30;1.70;;;1.60;;
12332;SDS011;6232;48.094;11.288;2023-09-19T08:29:16;3.43;;;1.20;;
12332;SDS011;6232;48.094;11.288;2023-09-19T08:32:03;3.23;;;1.50;;
12332;SDS011;6232;48.094;11.288;2023-09-19T08:34:49;1.90;;;1.73;;
12332;SDS011;6232;48.094;11.288;2023-09-19T08:37:35;2.87;;;1.70;;
12332;SDS011;6232;48.094;11.288;2023-09-19T08:40:20;1.67;;;1.20;;
12332;SDS011;6232;48.094;11.288;2023-09-19T08:43:06;1.60;;;1.20;;
12332;SDS011;6232;48.094;11.288;2023-09-19T08:46:14;1.30;;;1.20;;
12332;SDS011;6232;48.094;11.288;2023-09-19T08:51:47;8.00;;;1.80;;
12332;SDS011;6232;48.094;11.288;2023-09-19T08:54:39;5.93;;;2.53;;
12332;SDS011;6232;48.094;11.288;2023-09-19T08:57:28;3.53;;;1.40;;
12332;SDS011;6232;48.094;11.288;2023-09-19T09:00:15;1.30;;;1.20;;
12332;SDS011;6232;48.094;11.288;2023-09-19T09:03:03;3.53;;;1.87;;
12332;SDS011;6232;48.094;11.288;2023-09-19T09:05:49;2.70;;;1.30;;
12332;SDS011;6232;48.094;11.288;2023-09-19T09:08:36;1.97;;;1.30;;
12332;SDS011;6232;48.094;11.288;2023-09-19T09:11:21;2.03;;;1.40;;
12332;SDS011;6232;48.094;11.288;2023-09-19T09:14:10;1.70;;;1.40;;
12332;SDS011;6232;48.094;11.288;2023-09-19T09:16:56;2.40;;;2.20;;
12332;SDS011;6232;48.094;11.288;2023-09-19T09:19:44;5.53;;;1.90;;
12332;SDS011;6232;48.094;11.288;2023-09-19T09:22:29;6.57;;;2.50;;
12332;SDS011;6232;48.094;11.288;2023-09-19T09:25:17;5.87;;;2.10;;
12332;SDS011;6232;48.094;11.288;2023-09-19T09:28:03;6.57;;;2.30;;
12332;SDS011;6232;48.094;11.288;2023-09-19T09:30:49;4.57;;;1.40;;
12332;SDS011;6232;48.094;11.288;2023-09-19T09:33:35;1.37;;;1.20;;
12332;SDS011;6232;48.094;11.288;2023-09-19T09:36:37;1.80;;;1.43;;
12332;SDS011;6232;48.094;11.288;2023-09-19T09:39:32;1.67;;;1.33;;
12332;SDS011;6232;48.094;11.288;2023-09-19T09:42:35;1.67;;;1.57;;
12332;SDS011;6232;48.094;11.288;2023-09-19T09:45:21;1.57;;;1.47;;
12332;SDS011;6232;48.094;11.288;2023-09-19T09:48:24;3.23;;;2.10;;
12332;SDS011;6232;48.094;11.288;2023-09-19T09:51:29;3.57;;;1.43;;
12332;SDS011;6232;48.094;11.288;2023-09-19T09:54:16;3.20;;;1.43;;
12332;SDS011;6232;48.094;11.288;2023-09-19T09:57:02;1.67;;;1.57;;
12332;SDS011;6232;48.094;11.288;2023-09-19T10:00:02;3.60;;;1.63;;
12332;SDS011;6232;48.094;11.288;2023-09-19T10:03:02;1.70;;;1.37;;
12332;SDS011;6232;48.094;11.288;2023-09-19T10:05:52;1.60;;;1.40;;
12332;SDS011;6232;48.094;11.288;2023-09-19T10:08:40;1.47;;;1.30;;
12332;SDS011;6232;48.094;11.288;2023-09-19T10:11:47;1.97;;;1.30;;
12332;SDS011;6232;48.094;11.288;2023-09-19T10:14:37;2.53;;;1.43;;
12332;SDS011;6232;48.094;11.288;2023-09-19T10:17:23;1.30;;;1.20;;
12332;SDS011;6232;48.094;11.288;2023-09-19T10:20:11;2.17;;;1.40;;
12332;SDS011;6232;48.094;11.288;2023-09-19T10:23:08;2.00;;;1.30;;
12332;SDS011;6232;48.094;11.288;2023-09-19T10:25:56;2.00;;;1.20;;
12332;SDS011;6232;48.094;11.288;2023-09-19T10:28:42;1.50;;;1.40;;
12332;SDS011;6232;48.094;11.288;2023-09-19T10:31:29;1.60;;;1.50;;
12332;SDS011;6232;48.094;11.288;2023-09-19T10:34:20;1.90;;;1.50;;
12332;SDS011;6232;48.094;11.288;2023-09-19T10:37:06;1.60;;;1.50;;
12332;SDS011;6232;48.094;11.288;2023-09-19T10:39:54;1.97;;;1.77;;
12332;SDS011;6232;48.094;11.288;2023-09-19T10:42:41;1.73;;;1.33;;
12332;SDS011;6232;48.094;11.288;2023-09-19T10:45:28;1.53;;;1.27;;
12332;SDS011;6232;48.094;11.288;2023-09-19T10:48:15;1.73;;;1.33;;
12332;SDS011;6232;48.094;11.288;2023-09-19T10:51:06;3.77;;;1.47;;
12332;SDS011;6232;48.094;11.288;2023-09-19T10:54:01;5.90;;;1.20;;
12332;SDS011;6232;48.094;11.288;2023-09-19T10:56:50;4.03;;;1.60;;
12332;SDS011;6232;48.094;11.288;2023-09-19T10:59:37;7.90;;;1.50;;
12332;SDS011;6232;48.094;11.288;2023-09-19T11:02:24;3.40;;;1.50;;
12332;SDS011;6232;48.094;11.288;2023-09-19T11:05:11;1.40;;;1.20;;
12332;SDS011;6232;48.094;11.288;2023-09-19T11:07:57;1.10;;;1.00;;
12332;SDS011;6232;48.094;11.288;2023-09-19T11:10:50;1.63;;;0.90;;
12332;SDS011;6232;48.094;11.288;2023-09-19T11:13:39;1.10;;;1.00;;
12332;SDS011;6232;48.094;11.288;2023-09-19T11:16:27;2.80;;;1.30;;
12332;SDS011;6232;48.094;11.288;2023-09-19T11:19:13;4.77;;;1.33;;
12332;SDS011;6232;48.094;11.288;2023-09-19T11:21:59;4.73;;;1.47;;
12332;SDS011;6232;48.094;11.288;2023-09-19T11:24:44;1.53;;;1.13;;
12332;SDS011;6232;48.094;11.288;2023-09-19T11:27:31;10.10;;;1.20;;
12332;SDS011;6232;48.094;11.288;2023-09-19T11:30:26;2.47;;;1.43;;
12332;SDS011;6232;48.094;11.288;2023-09-19T11:33:25;2.53;;;1.27;;
12332;SDS011;6232;48.094;11.288;2023-09-19T11:36:14;1.60;;;1.23;;
12332;SDS011;6232;48.094;11.288;2023-09-19T11:39:01;1.87;;;1.07;;
12332;SDS011;6232;48.094;11.288;2023-09-19T11:41:53;1.43;;;1.07;;
12332;SDS011;6232;48.094;11.288;2023-09-19T11:44:41;2.70;;;1.30;;
12332;SDS011;6232;48.094;11.288;2023-09-19T11:47:28;2.90;;;1.00;;
12332;SDS011;6232;48.094;11.288;2023-09-19T11:50:17;5.57;;;1.30;;
12332;SDS011;6232;48.094;11.288;2023-09-19T11:53:05;2.27;;;1.20;;
12332;SDS011;6232;48.094;11.288;2023-09-19T11:55:51;1.30;;;1.20;;
12332;SDS011;6232;48.094;11.288;2023-09-19T11:58:38;1.73;;;1.40;;
12332;SDS011;6232;48.094;11.288;2023-09-19T12:01:31;1.27;;;1.10;;
12332;SDS011;6232;48.094;11.288;2023-09-19T12:04:17;1.37;;;1.13;;
12332;SDS011;6232;48.094;11.288;2023-09-19T12:07:08;6.17;;;1.20;;
12332;SDS011;6232;48.094;11.288;2023-09-19T12:10:06;6.23;;;1.27;;
12332;SDS011;6232;48.094;11.288;2023-09-19T12:12:56;1.17;;;0.97;;
12332;SDS011;6232;48.094;11.288;2023-09-19T12:15:45;1.13;;;1.03;;
12332;SDS011;6232;48.094;11.288;2023-09-19T12:18:33;1.30;;;1.20;;
12332;SDS011;6232;48.094;11.288;2023-09-19T12:24:13;1.30;;;1.20;;
12332;SDS011;6232;48.094;11.288;2023-09-19T12:27:02;1.20;;;1.10;;
12332;SDS011;6232;48.094;11.288;2023-09-19T12:29:50;2.07;;;1.30;;
12332;SDS011;6232;48.094;11.288;2023-09-19T12:32:40;2.67;;;1.40;;
12332;SDS011;6232;48.094;11.288;2023-09-19T12:35:32;1.43;;;1.20;;
12332;SDS011;6232;48.094;11.288;2023-09-19T12:38:24;3.00;;;1.27;;
12332;SDS011;6232;48.094;11.288;2023-09-19T12:41:20;1.13;;;1.03;;
12332;SDS011;6232;48.094;11.288;2023-09-19T12:44:07;1.73;;;1.30;;
12332;SDS011;6232;48.094;11.288;2023-09-19T12:46:56;3.13;;;1.30;;
12332;SDS011;6232;48.094;11.288;2023-09-19T12:52:52;1.13;;;1.03;;
12332;SDS011;6232;48.094;11.288;2023-09-19T12:55:38;2.10;;;1.20;;
12332;SDS011;6232;48.094;11.288;2023-09-19T12:58:24;2.83;;;0.97;;
12332;SDS011;6232;48.094;11.288;2023-09-19T13:01:14;2.50;;;1.27;;
12332;SDS011;6232;48.094;11.288;2023-09-19T13:07:04;1.10;;;1.00;;
12332;SDS011;6232;48.094;11.288;2023-09-19T13:10:03;1.10;;;1.00;;
12332;SDS011;6232;48.094;11.288;2023-09-19T13:12:50;1.73;;;1.13;;
12332;SDS011;6232;48.094;11.288;2023-09-19T13:15:50;2.13;;;1.10;;
12332;SDS011;6232;48.094;11.288;2023-09-19T13:18:46;2.10;;;1.20;;
12332;SDS011;6232;48.094;11.288;2023-09-19T13:21:33;1.10;;;1.00;;
12332;SDS011;6232;48.094;11.288;2023-09-19T13:24:23;2.37;;;1.40;;
12332;SDS011;6232;48.094;11.288;2023-09-19T13:27:11;4.50;;;1.17;;
12332;SDS011;6232;48.094;11.288;2023-09-19T13:29:56;4.27;;;1.20;;
12332;SDS011;6232;48.094;11.288;2023-09-19T13:32:44;1.77;;;1.13;;
12332;SDS011;6232;48.094;11.288;2023-09-19T13:35:32;0.97;;;0.97;;
12332;SDS011;6232;48.094;11.288;2023-09-19T13:38:18;1.30;;;1.20;;
12332;SDS011;6232;48.094;11.288;2023-09-19T13:41:07;4.37;;;1.07;;
12332;SDS011;6232;48.094;11.288;2023-09-19T13:43:53;3.60;;;1.10;;
12332;SDS011;6232;48.094;11.288;2023-09-19T13:46:38;1.30;;;1.00;;
12332;SDS011;6232;48.094;11.288;2023-09-19T13:49:24;1.30;;;1.10;;
12332;SDS011;6232;48.094;11.288;2023-09-19T13:52:11;3.77;;;1.00;;
12332;SDS011;6232;48.094;11.288;2023-09-19T13:54:58;1.30;;;1.10;;
12332;SDS011;6232;48.094;11.288;2023-09-19T13:57:47;1.47;;;0.90;;
12332;SDS011;6232;48.094;11.288;2023-09-19T14:00:35;1.20;;;1.00;;
12332;SDS011;6232;48.094;11.288;2023-09-19T14:03:21;1.77;;;1.00;;
12332;SDS011;6232;48.094;11.288;2023-09-19T14:06:06;1.73;;;0.93;;
12332;SDS011;6232;48.094;11.288;2023-09-19T14:08:52;0.90;;;0.80;;
12332;SDS011;6232;48.094;11.288;2023-09-19T14:11:38;1.33;;;1.00;;
12332;SDS011;6232;48.094;11.288;2023-09-19T14:14:23;0.80;;;0.70;;
12332;SDS011;6232;48.094;11.288;2023-09-19T14:17:13;2.03;;;1.10;;
12332;SDS011;6232;48.094;11.288;2023-09-19T14:20:00;1.13;;;1.00;;
12332;SDS011;6232;48.094;11.288;2023-09-19T14:22:48;2.90;;;1.03;;
12332;SDS011;6232;48.094;11.288;2023-09-19T14:25:34;1.57;;;0.93;;
12332;SDS011;6232;48.094;11.288;2023-09-19T14:28:20;3.67;;;1.20;;
12332;SDS011;6232;48.094;11.288;2023-09-19T14:31:11;1.37;;;1.17;;
12332;SDS011;6232;48.094;11.288;2023-09-19T14:33:58;1.07;;;0.80;;
12332;SDS011;6232;48.094;11.288;2023-09-19T14:36:44;0.87;;;0.83;;
12332;SDS011;6232;48.094;11.288;2023-09-19T14:39:30;2.90;;;1.20;;
12332;SDS011;6232;48.094;11.288;2023-09-19T14:42:15;2.50;;;1.27;;
12332;SDS011;6232;48.094;11.288;2023-09-19T14:45:03;1.07;;;0.97;;
12332;SDS011;6232;48.094;11.288;2023-09-19T14:47:50;1.00;;;0.90;;
12332;SDS011;6232;48.094;11.288;2023-09-19T14:50:38;1.50;;;1.07;;
12332;SDS011;6232;48.094;11.288;2023-09-19T14:53:23;1.30;;;0.80;;
12332;SDS011;6232;48.094;11.288;2023-09-19T14:56:12;1.57;;;1.07;;
12332;SDS011;6232;48.094;11.288;2023-09-19T14:59:01;1.10;;;0.90;;
12332;SDS011;6232;48.094;11.288;2023-09-19T15:01:47;1.20;;;0.90;;
12332;SDS011;6232;48.094;11.288;2023-09-19T15:04:35;1.20;;;0.90;;
12332;SDS011;6232;48.094;11.288;2023-09-19T15:07:23;2.70;;;0.93;;
12332;SDS011;6232;48.094;11.288;2023-09-19T15:10:09;1.13;;;0.93;;
12332;SDS011;6232;48.094;11.288;2023-09-19T15:12:55;4.10;;;1.20;;
12332;SDS011;6232;48.094;11.288;2023-09-19T15:15:40;1.10;;;0.90;;
12332;SDS011;6232;48.094;11.288;2023-09-19T15:18:28;1.07;;;0.90;;
12332;SDS011;6232;48.094;11.288;2023-09-19T15:21:15;2.00;;;0.90;;
12332;SDS011;6232;48.094;11.288;2023-09-19T15:24:03;1.77;;;0.87;;
12332;SDS011;6232;48.094;11.288;2023-09-19T15:26:50;1.73;;;1.30;;
12332;SDS011;6232;48.094;11.288;2023-09-19T15:29:36;1.20;;;1.00;;
12332;SDS011;6232;48.094;11.288;2023-09-19T15:32:22;1.30;;;0.97;;
12332;SDS011;6232;48.094;11.288;2023-09-19T15:35:07;3.07;;;1.10;;
12332;SDS011;6232;48.094;11.288;2023-09-19T15:37:59;1.40;;;1.30;;
12332;SDS011;6232;48.094;11.288;2023-09-19T15:40:46;1.20;;;1.10;;
12332;SDS011;6232;48.094;11.288;2023-09-19T15:43:31;2.17;;;1.60;;
12332;SDS011;6232;48.094;11.288;2023-09-19T15:46:17;3.83;;;1.70;;
12332;SDS011;6232;48.094;11.288;2023-09-19T15:49:03;1.30;;;1.20;;
12332;SDS011;6232;48.094;11.288;2023-09-19T15:51:49;1.20;;;1.10;;
12332;SDS011;6232;48.094;11.288;2023-09-19T15:54:34;2.17;;;1.40;;
12332;SDS011;6232;48.094;11.288;2023-09-19T15:57:20;1.43;;;1.33;;
12332;SDS011;6232;48.094;11.288;2023-09-19T16:00:09;1.33;;;1.23;;
12332;SDS011;6232;48.094;11.288;2023-09-19T16:02:58;1.83;;;1.50;;
12332;SDS011;6232;48.094;11.288;2023-09-19T16:05:46;1.90;;;1.80;;
12332;SDS011;6232;48.094;11.288;2023-09-19T16:08:32;1.70;;;1.60;;
12332;SDS011;6232;48.094;11.288;2023-09-19T16:11:19;2.77;;;2.00;;
12332;SDS011;6232;48.094;11.288;2023-09-19T16:14:05;2.37;;;1.77;;
12332;SDS011;6232;48.094;11.288;2023-09-19T16:16:51;2.30;;;2.10;;
12332;SDS011;6232;48.094;11.288;2023-09-19T16:19:37;3.43;;;1.80;;
12332;SDS011;6232;48.094;11.288;2023-09-19T16:22:23;3.73;;;1.60;;
12332;SDS011;6232;48.094;11.288;2023-09-19T16:25:09;1.60;;;1.40;;
12332;SDS011;6232;48.094;11.288;2023-09-19T16:27:57;1.60;;;1.37;;
12332;SDS011;6232;48.094;11.288;2023-09-19T16:30:42;1.73;;;1.40;;
12332;SDS011;6232;48.094;11.288;2023-09-19T16:33:31;2.60;;;1.43;;
12332;SDS011;6232;48.094;11.288;2023-09-19T16:36:18;1.83;;;1.40;;
12332;SDS011;6232;48.094;11.288;2023-09-19T16:39:07;1.67;;;1.30;;
12332;SDS011;6232;48.094;11.288;2023-09-19T16:41:53;2.80;;;1.30;;
12332;SDS011;6232;48.094;11.288;2023-09-19T16:44:38;2.97;;;1.50;;
12332;SDS011;6232;48.094;11.288;2023-09-19T16:47:24;3.67;;;1.50;;
12332;SDS011;6232;48.094;11.288;2023-09-19T16:50:10;2.50;;;1.40;;
12332;SDS011;6232;48.094;11.288;2023-09-19T16:52:55;5.30;;;1.80;;
12332;SDS011;6232;48.094;11.288;2023-09-19T16:55:41;2.50;;;1.47;;
12332;SDS011;6232;48.094;11.288;2023-09-19T16:58:27;1.60;;;1.50;;
12332;SDS011;6232;48.094;11.288;2023-09-19T17:01:13;2.53;;;1.70;;
12332;SDS011;6232;48.094;11.288;2023-09-19T17:03:59;1.77;;;1.33;;
12332;SDS011;6232;48.094;11.288;2023-09-19T17:06:47;1.33;;;1.23;;
12332;SDS011;6232;48.094;11.288;2023-09-19T17:09:33;1.67;;;1.50;;
12332;SDS011;6232;48.094;11.288;2023-09-19T17:12:18;1.83;;;1.30;;
12332;SDS011;6232;48.094;11.288;2023-09-19T17:15:04;5.90;;;1.60;;
12332;SDS011;6232;48.094;11.288;2023-09-19T17:17:50;1.80;;;1.70;;
12332;SDS011;6232;48.094;11.288;2023-09-19T17:20:40;3.10;;;1.50;;
12332;SDS011;6232;48.094;11.288;2023-09-19T17:23:26;2.97;;;1.70;;